マナグア の空港の天気 - METARとTAF

マナグア国際空港 ( MNMG / MGA ) - ニカラグア マナグア県マナグア
飛行場実況気象(Metar)
観測時間02/26 23:00 CST (02/27 05:00 UTC)
風向・風速東 3m/s
視程10km以上
天気現象
少しの雲 雲底高度 670m
気温26℃
湿度74%
気圧1011hPa
METARMNMG 270500Z 10006KT 9999 FEW022 26/21 Q1011 A2988 NOSIG
過去の天気等 Google飛行場航空写真 Wunderground天気予報

過去48時間のMETAR

飛行場予報(TAF)
発表時間: 2/26 21:15 CST (2/27 03:15 UTC)
予報対象時間: 27日0時 CST ~ 27日6時 CST
風向・風速東南東 3m/s
視程10km以上
少しの雲 雲底高度 670m
27日2時 CST ~ 27日6時 CST に一時的に
風向・風速静穏
27日7時 CST ~ 27日13時 CST に一時的に
風向・風速東北東 6m/s
少しの雲 雲底高度 760m
全天の4割程度の雲 雲底高度 2440m
27日14時 CST ~ 27日17時 CST に一時的に
風向・風速東南東 8m/s
MNMG 270315Z 2706/2712 11006KT 9999 FEW022
TEMPO 2708/2712 00000KT
TEMPO 2713/2719 07012KT FEW025 SCT080
TEMPO 2720/2723 11015G25